createdAt,value
2024-02-08T00:00:23.824Z,99358.45
2024-02-08T00:03:16.322Z,99360.20
2024-02-08T00:05:48.297Z,99364.56
2024-02-08T00:08:20.158Z,99365.23
2024-02-08T00:10:52.159Z,99367.73
2024-02-08T00:13:24.787Z,99367.48
2024-02-08T00:15:58.898Z,99369.43
2024-02-08T00:18:31.401Z,99373.04
2024-02-08T00:21:03.444Z,99374.25
2024-02-08T00:23:38.437Z,99372.73
2024-02-08T00:26:10.575Z,99375.58
2024-02-08T00:28:44.124Z,99374.65
2024-02-08T00:31:16.118Z,99378.26
2024-02-08T00:33:49.710Z,99380.81
2024-02-08T00:36:22.307Z,99382.70
2024-02-08T00:38:54.383Z,99383.65
2024-02-08T00:41:26.345Z,99383.33
2024-02-08T00:43:58.829Z,99388.40
2024-02-08T00:46:31.097Z,99388.01
2024-02-08T00:49:03.105Z,99393.24
2024-02-08T00:51:36.313Z,99392.09
2024-02-08T00:54:09.848Z,99398.23
2024-02-08T00:56:43.097Z,99399.79
2024-02-08T00:59:17.117Z,99402.23
2024-02-08T01:01:47.561Z,99408.88
2024-02-08T01:04:22.821Z,99409.73
2024-02-08T01:06:56.175Z,99408.15
2024-02-08T01:09:28.543Z,99409.30
2024-02-08T01:12:03.228Z,99414.39
2024-02-08T01:14:35.383Z,99411.36
2024-02-08T01:17:07.868Z,99413.15
2024-02-08T01:19:40.026Z,99418.84
2024-02-08T01:22:12.666Z,99418.38
2024-02-08T01:24:45.444Z,99418.67
2024-02-08T01:27:22.321Z,99421.98
2024-02-08T01:30:01.265Z,99419.83
2024-02-08T01:32:33.639Z,99423.70
2024-02-08T01:35:08.522Z,99423.59
2024-02-08T01:37:41.037Z,99431.68
2024-02-08T01:40:18.335Z,99432.76
2024-02-08T01:42:50.504Z,99424.66
2024-02-08T01:45:32.529Z,99418.60
2024-02-08T01:48:12.124Z,99416.76
2024-02-08T01:50:54.490Z,99419.33
2024-02-08T01:53:29.878Z,99421.17
2024-02-08T01:56:04.196Z,99420.91
2024-02-08T01:58:37.457Z,99422.66
2024-02-08T02:01:09.753Z,99425.30
2024-02-08T02:03:43.200Z,99419.46
2024-02-08T02:06:16.166Z,99424.42
2024-02-08T02:08:55.352Z,99427.15
2024-02-08T02:11:32.185Z,99422.32
2024-02-08T02:14:04.705Z,99425.29
2024-02-08T02:16:36.849Z,99427.02
2024-02-08T02:19:10.229Z,99434.81
2024-02-08T02:21:42.198Z,99441.73
2024-02-08T02:24:14.150Z,99438.64
2024-02-08T02:26:48.003Z,99441.57
2024-02-08T02:29:25.218Z,99441.10
2024-02-08T02:31:57.326Z,99445.00
2024-02-08T02:34:32.233Z,99450.69
2024-02-08T02:37:06.379Z,99454.09
2024-02-08T02:39:38.582Z,99452.90
2024-02-08T02:42:10.618Z,99448.77
2024-02-08T02:44:42.603Z,99452.11
2024-02-08T02:47:15.093Z,99449.45
2024-02-08T02:49:47.444Z,99457.61
2024-02-08T02:52:19.365Z,99454.73
2024-02-08T02:54:51.548Z,99460.64
2024-02-08T02:57:23.778Z,99460.84
2024-02-08T03:00:00.934Z,99466.20
2024-02-08T03:02:33.377Z,99464.36
2024-02-08T03:05:07.961Z,99468.34
2024-02-08T03:07:43.935Z,99469.14
2024-02-08T03:10:16.440Z,99468.93
2024-02-08T03:12:48.486Z,99470.88
2024-02-08T03:15:21.228Z,99472.98
2024-02-08T03:17:54.261Z,99473.41
2024-02-08T03:20:31.034Z,99474.02
2024-02-08T03:23:03.465Z,99477.43
2024-02-08T03:25:41.866Z,99475.79
2024-02-08T03:28:13.909Z,99477.94
2024-02-08T03:30:46.176Z,99479.12
2024-02-08T03:33:18.558Z,99482.17
2024-02-08T03:35:54.793Z,99486.25
2024-02-08T03:38:26.847Z,99491.34
2024-02-08T03:40:59.566Z,99495.96
2024-02-08T03:43:34.372Z,99494.44
2024-02-08T03:46:09.078Z,99498.77
2024-02-08T03:48:47.228Z,99497.75
2024-02-08T03:51:20.599Z,99502.08
2024-02-08T03:53:54.240Z,99503.55
2024-02-08T03:56:28.131Z,99502.52
2024-02-08T03:59:11.597Z,99503.64
2024-02-08T04:01:46.710Z,99502.81
2024-02-08T04:04:23.944Z,99505.59
2024-02-08T04:07:16.144Z,99515.97
2024-02-08T04:09:53.120Z,99516.69
2024-02-08T04:12:42.604Z,99511.41
2024-02-08T04:15:33.336Z,99515.52
2024-02-08T04:18:24.133Z,99522.13
2024-02-08T04:21:10.040Z,99525.07
2024-02-08T04:24:01.296Z,99529.83
2024-02-08T04:26:50.843Z,99530.37
2024-02-08T04:29:40.481Z,99535.94
2024-02-08T04:32:30.584Z,99533.09
2024-02-08T04:35:22.793Z,99530.88
2024-02-08T04:38:13.793Z,99531.71
2024-02-08T04:41:15.424Z,99531.64
2024-02-08T04:44:04.963Z,99530.58
2024-02-08T04:46:57.333Z,99527.38
2024-02-08T04:49:48.180Z,99524.10
2024-02-08T04:52:37.400Z,99523.89
2024-02-08T04:55:11.804Z,99518.95
2024-02-08T04:57:43.599Z,99518.81
2024-02-08T05:00:17.548Z,99519.02
2024-02-08T05:02:50.754Z,99520.50
2024-02-08T05:05:22.598Z,99522.67
2024-02-08T05:07:55.260Z,99521.33
2024-02-08T05:10:29.683Z,99522.02
2024-02-08T05:13:06.001Z,99524.95
2024-02-08T05:15:38.499Z,99527.11
2024-02-08T05:18:13.151Z,99532.48
2024-02-08T05:20:49.404Z,99536.84
2024-02-08T05:23:21.573Z,99531.45
2024-02-08T05:25:54.019Z,99532.50
2024-02-08T05:28:27.680Z,99530.05
2024-02-08T05:30:59.672Z,99528.16
2024-02-08T05:33:32.054Z,99532.32
2024-02-08T05:36:08.525Z,99535.23
2024-02-08T05:38:42.688Z,99538.61
2024-02-08T05:41:17.248Z,99539.85
2024-02-08T05:43:52.898Z,99538.25
2024-02-08T05:46:30.153Z,99537.15
2024-02-08T05:49:06.636Z,99537.75
2024-02-08T05:51:39.221Z,99537.89
2024-02-08T05:54:11.134Z,99538.63
2024-02-08T05:56:44.753Z,99541.78
2024-02-08T05:59:18.680Z,99549.52
2024-02-08T06:01:54.804Z,99546.54
2024-02-08T06:04:27.274Z,99550.83
2024-02-08T06:07:06.604Z,99549.91
2024-02-08T06:09:56.697Z,99554.64
2024-02-08T06:12:45.658Z,99558.33
2024-02-08T06:15:27.018Z,99566.42
2024-02-08T06:18:05.468Z,99566.80
2024-02-08T06:20:42.609Z,99572.23
2024-02-08T06:23:25.383Z,99570.34
2024-02-08T06:26:14.767Z,99567.70
2024-02-08T06:28:49.191Z,99569.16
2024-02-08T06:31:21.543Z,99568.27
2024-02-08T06:34:29.565Z,99575.59
2024-02-08T06:37:17.960Z,99579.35
2024-02-08T06:39:58.324Z,99583.11
2024-02-08T06:43:06.666Z,99588.45
2024-02-08T06:46:10.648Z,99589.13
2024-02-08T06:49:11.857Z,99583.73
2024-02-08T06:52:01.046Z,99579.27
2024-02-08T06:54:50.287Z,99582.52
2024-02-08T06:57:39.779Z,99585.84
2024-02-08T07:00:31.380Z,99589.77
2024-02-08T07:03:20.653Z,99592.13
2024-02-08T07:06:10.038Z,99588.61
2024-02-08T07:08:59.780Z,99593.40
2024-02-08T07:11:48.882Z,99593.04
2024-02-08T07:14:38.458Z,99591.23
2024-02-08T07:17:28.270Z,99590.52
2024-02-08T07:20:18.139Z,99596.55
2024-02-08T07:23:07.698Z,99596.48
2024-02-08T07:25:57.557Z,99600.38
2024-02-08T07:28:47.022Z,99602.86
2024-02-08T07:31:36.641Z,99603.23
2024-02-08T07:34:26.781Z,99605.02
2024-02-08T07:37:19.549Z,99606.71
2024-02-08T07:39:55.559Z,99604.23
2024-02-08T07:42:33.707Z,99604.90
2024-02-08T07:45:06.945Z,99615.95
2024-02-08T07:47:39.408Z,99616.89
2024-02-08T07:50:12.276Z,99617.70
2024-02-08T07:52:48.192Z,99622.23
2024-02-08T07:55:42.949Z,99621.17
2024-02-08T07:58:19.459Z,99617.27
2024-02-08T08:00:51.634Z,99616.83
2024-02-08T08:03:25.482Z,99617.86
2024-02-08T08:05:58.541Z,99629.45
2024-02-08T08:08:33.111Z,99631.81
2024-02-08T08:11:08.389Z,99628.17
2024-02-08T08:13:58.067Z,99622.48
2024-02-08T08:16:38.857Z,99621.77
2024-02-08T08:19:11.549Z,99625.41
2024-02-08T08:22:20.051Z,99624.70
2024-02-08T08:25:14.211Z,99624.69
2024-02-08T08:27:54.426Z,99623.52
2024-02-08T08:30:32.546Z,99622.54
2024-02-08T08:33:30.131Z,99618.40
2024-02-08T08:36:06.520Z,99614.48
2024-02-08T08:38:46.049Z,99615.23
2024-02-08T08:41:20.228Z,99618.16
2024-02-08T08:43:55.549Z,99617.58
2024-02-08T08:46:27.558Z,99618.49
2024-02-08T08:49:05.776Z,99620.37
2024-02-08T08:51:37.936Z,99620.74
2024-02-08T08:54:20.441Z,99618.04
2024-02-08T08:56:53.166Z,99619.19
2024-02-08T08:59:27.776Z,99619.27
2024-02-08T09:02:02.128Z,99624.02
2024-02-08T09:04:37.709Z,99626.05
2024-02-08T09:07:13.647Z,99627.46
2024-02-08T09:10:03.960Z,99632.92
2024-02-08T09:12:40.588Z,99632.11
2024-02-08T09:15:28.466Z,99630.04
2024-02-08T09:18:10.562Z,99628.09
2024-02-08T09:20:43.817Z,99623.41
2024-02-08T09:23:17.761Z,99620.60
2024-02-08T09:25:50.532Z,99614.59
2024-02-08T09:28:27.875Z,99621.47
2024-02-08T09:31:05.169Z,99614.77
2024-02-08T09:33:48.639Z,99618.49
2024-02-08T09:36:21.260Z,99621.60
2024-02-08T09:38:53.273Z,99617.48
2024-02-08T09:41:26.885Z,99619.10
2024-02-08T09:44:00.987Z,99610.25
2024-02-08T09:46:45.854Z,99613.98
2024-02-08T09:49:19.444Z,99611.42
2024-02-08T09:51:56.144Z,99615.66
2024-02-08T09:54:31.171Z,99615.34
2024-02-08T09:57:23.522Z,99616.59
2024-02-08T10:00:07.921Z,99618.35
2024-02-08T10:02:54.641Z,99621.42
2024-02-08T10:05:46.634Z,99619.13
2024-02-08T10:08:30.101Z,99622.66
2024-02-08T10:11:25.517Z,99610.96
2024-02-08T10:14:03.614Z,99612.09
2024-02-08T10:16:49.345Z,99607.25
2024-02-08T10:19:49.230Z,99595.27
2024-02-08T10:22:28.860Z,99596.14
2024-02-08T10:25:18.188Z,99583.45
2024-02-08T10:27:59.065Z,99584.80
2024-02-08T10:30:31.312Z,99590.54
2024-02-08T10:33:06.224Z,99593.43
2024-02-08T10:35:41.672Z,99593.17
2024-02-08T10:38:31.904Z,99591.38
2024-02-08T10:41:13.231Z,99588.54
2024-02-08T10:43:53.650Z,99584.84
2024-02-08T10:46:26.038Z,99574.84
2024-02-08T10:48:58.850Z,99573.38
2024-02-08T10:51:31.958Z,99580.00
2024-02-08T10:54:16.063Z,99576.48
2024-02-08T10:56:51.615Z,99565.55
2024-02-08T10:59:41.196Z,99565.66
2024-02-08T11:02:33.433Z,99568.83
2024-02-08T11:05:23.067Z,99563.68
2024-02-08T11:07:55.461Z,99564.41
2024-02-08T11:10:34.087Z,99569.65
2024-02-08T11:13:12.363Z,99558.46
2024-02-08T11:15:51.134Z,99550.95
2024-02-08T11:18:35.057Z,99546.61
2024-02-08T11:21:14.570Z,99546.86
2024-02-08T11:23:52.806Z,99544.21
2024-02-08T11:26:27.998Z,99541.53
2024-02-08T11:29:19.965Z,99542.13
2024-02-08T11:31:52.401Z,99540.14
2024-02-08T11:34:35.590Z,99538.85
2024-02-08T11:37:20.220Z,99545.71
2024-02-08T11:40:10.810Z,99544.89
2024-02-08T11:42:43.732Z,99545.33
2024-02-08T11:45:23.642Z,99541.48
2024-02-08T11:47:57.024Z,99540.86
2024-02-08T11:50:37.937Z,99538.93
2024-02-08T11:53:10.988Z,99535.83
2024-02-08T11:55:46.476Z,99540.59
2024-02-08T11:58:18.689Z,99537.67
2024-02-08T12:00:51.824Z,99535.78
2024-02-08T12:03:24.333Z,99525.80
2024-02-08T12:05:58.749Z,99521.42
2024-02-08T12:08:37.395Z,99521.55
2024-02-08T12:11:13.548Z,99512.55
2024-02-08T12:13:46.361Z,99505.09
2024-02-08T12:16:18.886Z,99505.23
2024-02-08T12:19:01.130Z,99502.61
2024-02-08T12:21:33.249Z,99500.65
2024-02-08T12:24:05.785Z,99494.05
2024-02-08T12:26:40.350Z,99498.42
2024-02-08T12:29:19.200Z,99500.29
2024-02-08T12:31:55.851Z,99500.36
2024-02-08T12:34:34.544Z,99503.59
2024-02-08T12:37:08.439Z,99506.27
2024-02-08T12:39:44.462Z,99501.89
2024-02-08T12:42:19.912Z,99499.02
2024-02-08T12:44:52.211Z,99497.69
2024-02-08T12:47:24.962Z,99494.23
2024-02-08T12:50:08.361Z,99491.05
2024-02-08T12:52:43.742Z,99485.19
2024-02-08T12:55:24.770Z,99477.11
2024-02-08T12:58:04.607Z,99480.76
2024-02-08T13:00:39.140Z,99472.67
2024-02-08T13:03:12.014Z,99474.88
2024-02-08T13:05:46.789Z,99472.29
2024-02-08T13:08:25.507Z,99477.73
2024-02-08T13:10:58.460Z,99476.28
2024-02-08T13:13:30.918Z,99469.94
2024-02-08T13:16:11.332Z,99464.56
2024-02-08T13:18:49.707Z,99460.21
2024-02-08T13:21:26.398Z,99460.99
2024-02-08T13:23:58.806Z,99457.94
2024-02-08T13:26:36.170Z,99457.05
2024-02-08T13:29:13.007Z,99454.73
2024-02-08T13:31:46.542Z,99451.73
2024-02-08T13:34:28.364Z,99451.48
2024-02-08T13:37:01.399Z,99451.31
2024-02-08T13:39:34.556Z,99450.79
2024-02-08T13:42:06.514Z,99446.34
2024-02-08T13:44:38.900Z,99439.61
2024-02-08T13:47:14.576Z,99439.05
2024-02-08T13:49:50.860Z,99437.58
2024-02-08T13:52:29.712Z,99443.26
2024-02-08T13:55:03.161Z,99443.95
2024-02-08T13:57:35.689Z,99440.30
2024-02-08T14:00:11.247Z,99438.58
2024-02-08T14:02:43.515Z,99437.05
2024-02-08T14:05:19.464Z,99436.85
2024-02-08T14:07:55.973Z,99439.17
2024-02-08T14:10:33.344Z,99436.95
2024-02-08T14:13:10.944Z,99436.42
2024-02-08T14:15:48.780Z,99439.80
2024-02-08T14:18:33.397Z,99440.77
2024-02-08T14:21:09.730Z,99440.00
2024-02-08T14:23:44.849Z,99440.82
2024-02-08T14:26:34.933Z,99437.98
2024-02-08T14:29:07.289Z,99439.61
2024-02-08T14:31:41.452Z,99435.62
2024-02-08T14:34:15.843Z,99433.41
2024-02-08T14:36:51.153Z,99436.98
2024-02-08T14:39:34.348Z,99434.76
2024-02-08T14:42:13.680Z,99440.94
2024-02-08T14:44:46.620Z,99443.23
2024-02-08T14:47:23.562Z,99440.27
2024-02-08T14:50:02.411Z,99442.92
2024-02-08T14:52:45.496Z,99439.72
2024-02-08T14:55:27.773Z,99436.19
2024-02-08T14:58:02.146Z,99434.80
2024-02-08T15:01:00.963Z,99437.91
2024-02-08T15:03:38.314Z,99431.64
2024-02-08T15:06:27.596Z,99424.55
2024-02-08T15:09:28.513Z,99422.43
2024-02-08T15:12:02.190Z,99415.90
2024-02-08T15:14:38.608Z,99413.19
2024-02-08T15:17:12.364Z,99412.75
2024-02-08T15:19:48.554Z,99415.39
2024-02-08T15:22:41.895Z,99416.00
2024-02-08T15:25:18.008Z,99411.35
2024-02-08T15:27:55.203Z,99412.86
2024-02-08T15:30:38.293Z,99416.88
2024-02-08T15:33:30.569Z,99413.44
2024-02-08T15:36:12.130Z,99412.90
2024-02-08T15:39:01.865Z,99416.71
2024-02-08T15:41:52.155Z,99413.27
2024-02-08T15:44:36.657Z,99400.45
2024-02-08T15:47:14.073Z,99401.59
2024-02-08T15:49:46.766Z,99399.70
2024-02-08T15:52:23.881Z,99398.67
2024-02-08T15:54:58.913Z,99398.15
2024-02-08T15:57:34.591Z,99392.45
2024-02-08T16:00:29.253Z,99391.22
2024-02-08T16:03:03.794Z,99391.71
2024-02-08T16:05:46.349Z,99392.01
2024-02-08T16:08:18.478Z,99391.68
2024-02-08T16:10:51.030Z,99385.19
2024-02-08T16:13:35.886Z,99386.02
2024-02-08T16:16:09.599Z,99386.02
2024-02-08T16:18:41.677Z,99383.20
2024-02-08T16:21:20.135Z,99384.92
2024-02-08T16:23:55.094Z,99381.81
2024-02-08T16:26:32.219Z,99382.07
2024-02-08T16:29:09.808Z,99385.55
2024-02-08T16:31:44.631Z,99386.58
2024-02-08T16:34:27.404Z,99390.13
2024-02-08T16:37:05.322Z,99394.10
2024-02-08T16:39:56.207Z,99395.09
2024-02-08T16:42:36.430Z,99390.79
2024-02-08T16:45:19.247Z,99391.64
2024-02-08T16:47:57.742Z,99394.30
2024-02-08T16:50:46.661Z,99389.69
2024-02-08T16:53:23.650Z,99391.52
2024-02-08T16:56:00.141Z,99392.83
2024-02-08T16:58:39.521Z,99392.37
2024-02-08T17:01:23.482Z,99395.60
2024-02-08T17:04:18.613Z,99400.92
2024-02-08T17:07:00.257Z,99401.70
2024-02-08T17:09:45.000Z,99400.71
2024-02-08T17:12:28.814Z,99402.42
2024-02-08T17:15:21.061Z,99398.15
2024-02-08T17:17:55.706Z,99395.59
2024-02-08T17:20:39.307Z,99393.31
2024-02-08T17:23:18.990Z,99386.85
2024-02-08T17:26:02.018Z,99387.19
2024-02-08T17:28:37.866Z,99381.22
2024-02-08T17:31:23.539Z,99381.41
2024-02-08T17:33:58.276Z,99380.01
2024-02-08T17:36:34.595Z,99377.38
2024-02-08T17:39:09.071Z,99375.83
2024-02-08T17:41:44.545Z,99372.12
2024-02-08T17:44:17.889Z,99373.52
2024-02-08T17:46:54.328Z,99371.14
2024-02-08T17:49:26.547Z,99367.61
2024-02-08T17:52:01.081Z,99367.80
2024-02-08T17:54:46.716Z,99357.86
2024-02-08T17:57:25.486Z,99354.12
2024-02-08T18:00:00.841Z,99354.03
2024-02-08T18:02:37.814Z,99346.55
2024-02-08T18:05:15.955Z,99345.80
2024-02-08T18:07:48.398Z,99353.88
2024-02-08T18:10:22.126Z,99354.70
2024-02-08T18:12:57.453Z,99354.58
2024-02-08T18:15:36.329Z,99349.08
2024-02-08T18:18:08.820Z,99351.59
2024-02-08T18:20:42.875Z,99349.70
2024-02-08T18:23:20.353Z,99349.08
2024-02-08T18:25:53.330Z,99354.37
2024-02-08T18:28:27.171Z,99349.73
2024-02-08T18:30:59.207Z,99351.99
2024-02-08T18:33:34.064Z,99346.23
2024-02-08T18:36:09.382Z,99350.70
2024-02-08T18:38:43.720Z,99352.73
2024-02-08T18:41:21.606Z,99349.81
2024-02-08T18:43:54.180Z,99345.66
2024-02-08T18:46:29.348Z,99341.36
2024-02-08T18:49:03.140Z,99339.80
2024-02-08T18:51:35.385Z,99335.08
2024-02-08T18:54:15.495Z,99329.64
2024-02-08T18:56:47.868Z,99334.81
2024-02-08T18:59:20.425Z,99337.21
2024-02-08T19:01:57.899Z,99332.25
2024-02-08T19:04:37.322Z,99324.31
2024-02-08T19:07:12.980Z,99326.89
2024-02-08T19:09:45.305Z,99324.88
2024-02-08T19:12:19.463Z,99325.13
2024-02-08T19:14:53.005Z,99320.33
2024-02-08T19:17:26.837Z,99316.55
2024-02-08T19:19:58.906Z,99310.96
2024-02-08T19:22:33.369Z,99306.46
2024-02-08T19:25:05.907Z,99300.37
2024-02-08T19:27:39.286Z,99298.64
2024-02-08T19:30:14.475Z,99299.90
2024-02-08T19:32:47.333Z,99296.76
2024-02-08T19:35:23.955Z,99291.92
2024-02-08T19:37:56.319Z,99289.02
2024-02-08T19:40:31.155Z,99281.50
2024-02-08T19:43:06.550Z,99272.75
2024-02-08T19:45:43.420Z,99269.42
2024-02-08T19:48:20.102Z,99272.85
2024-02-08T19:50:52.475Z,99269.48
2024-02-08T19:53:29.781Z,99267.75
2024-02-08T19:56:09.155Z,99265.46
2024-02-08T19:58:44.555Z,99261.75
2024-02-08T20:01:18.024Z,99259.36
2024-02-08T20:03:53.688Z,99258.57
2024-02-08T20:06:28.399Z,99258.65
2024-02-08T20:09:01.234Z,99252.55
2024-02-08T20:11:34.002Z,99248.84
2024-02-08T20:14:08.345Z,99246.46
2024-02-08T20:16:43.140Z,99240.98
2024-02-08T20:19:16.282Z,99244.34
2024-02-08T20:21:51.354Z,99246.42
2024-02-08T20:24:24.734Z,99248.09
2024-02-08T20:26:57.026Z,99247.80
2024-02-08T20:29:29.734Z,99247.93
2024-02-08T20:32:02.908Z,99252.07
2024-02-08T20:34:40.328Z,99246.58
2024-02-08T20:37:15.426Z,99246.52
2024-02-08T20:39:48.887Z,99245.29
2024-02-08T20:42:25.279Z,99246.24
2024-02-08T20:44:59.714Z,99249.27
2024-02-08T20:47:32.028Z,99249.66
2024-02-08T20:50:05.448Z,99250.34
2024-02-08T20:52:39.118Z,99248.76
2024-02-08T20:55:18.529Z,99250.34
2024-02-08T20:57:52.292Z,99247.38
2024-02-08T21:00:31.540Z,99244.53
2024-02-08T21:03:06.616Z,99246.52
2024-02-08T21:05:41.040Z,99246.61
2024-02-08T21:08:13.912Z,99246.20
2024-02-08T21:10:48.264Z,99246.16
2024-02-08T21:13:21.918Z,99244.67
2024-02-08T21:15:55.130Z,99242.26
2024-02-08T21:18:29.872Z,99235.98
2024-02-08T21:21:03.307Z,99231.38
2024-02-08T21:23:36.502Z,99229.95
2024-02-08T21:26:16.408Z,99225.69
2024-02-08T21:28:52.634Z,99225.69
2024-02-08T21:31:24.653Z,99232.91
2024-02-08T21:33:58.336Z,99236.90
2024-02-08T21:36:30.798Z,99239.79
2024-02-08T21:39:02.728Z,99231.91
2024-02-08T21:41:34.614Z,99225.06
2024-02-08T21:44:08.146Z,99228.34
2024-02-08T21:46:42.947Z,99227.91
2024-02-08T21:51:51.029Z,99224.87
2024-02-08T21:54:23.038Z,99227.22
2024-02-08T21:56:55.110Z,99229.36
2024-02-08T21:59:29.798Z,99224.58
2024-02-08T22:02:02.361Z,99226.13
2024-02-08T22:04:34.642Z,99222.42
2024-02-08T22:07:08.006Z,99229.37
2024-02-08T22:09:40.299Z,99231.81
2024-02-08T22:12:17.654Z,99229.55
2024-02-08T22:14:50.534Z,99228.23
2024-02-08T22:17:22.913Z,99234.17
2024-02-08T22:19:55.339Z,99233.02
2024-02-08T22:22:27.855Z,99233.18
2024-02-08T22:25:01.549Z,99231.06
2024-02-08T22:27:35.063Z,99241.88
2024-02-08T22:30:11.773Z,99233.22
2024-02-08T22:32:45.618Z,99235.16
2024-02-08T22:35:18.164Z,99239.08
2024-02-08T22:37:51.017Z,99236.73
2024-02-08T22:40:24.537Z,99247.82
2024-02-08T22:42:57.341Z,99252.28
2024-02-08T22:45:31.194Z,99253.58
2024-02-08T22:48:04.909Z,99250.02
2024-02-08T22:50:37.649Z,99248.16
2024-02-08T22:53:11.180Z,99248.25
2024-02-08T22:55:43.700Z,99245.81
2024-02-08T22:58:15.809Z,99250.81
2024-02-08T23:00:51.256Z,99248.92
2024-02-08T23:03:26.114Z,99242.10
2024-02-08T23:06:00.131Z,99239.62
2024-02-08T23:08:30.798Z,99241.90
2024-02-08T23:11:02.932Z,99243.27
2024-02-08T23:13:35.517Z,99242.25
2024-02-08T23:16:09.785Z,99246.11
2024-02-08T23:18:40.592Z,99243.88
2024-02-08T23:21:12.680Z,99245.70
2024-02-08T23:23:45.070Z,99243.34
2024-02-08T23:26:17.574Z,99244.61
2024-02-08T23:28:50.029Z,99249.86
2024-02-08T23:31:22.596Z,99247.15
2024-02-08T23:33:55.063Z,99246.32
2024-02-08T23:36:27.201Z,99248.84
2024-02-08T23:39:00.975Z,99242.84
2024-02-08T23:41:33.042Z,99246.27
2024-02-08T23:44:05.315Z,99246.41
2024-02-08T23:46:40.440Z,99242.27
2024-02-08T23:49:12.843Z,99240.39
2024-02-08T23:51:44.947Z,99241.56
2024-02-08T23:54:16.952Z,99234.67
2024-02-08T23:56:49.049Z,99233.25
2024-02-08T23:59:21.013Z,99222.84
